QFA237 YPLC-YPPH
Flight info
| Callsign | QFA237 |
|---|---|
| Flight time | 2h 42m |
| Altitude | 36000 |
| Route | KAMBI Q32 ALBIX/N0438F380 Q32 NODEV Q10 MALUP |
| Aircraft | B738/M-SDE2E3FGHIRWXY/LB1 |
Departure
| Time | 2026-05-04 04:45 |
|---|---|
| Airport | Port Lincoln Airport (YPLC) |
Arrival
| Time | 2026-05-04 07:28 |
|---|---|
| Airport | Perth International Airport (YPPH) |
| Time | Latitude | Longitude | Altitude | Speed | Heading |
|---|---|---|---|---|---|
| 2026-05-04 04:07 | -34.60401 | 135.87545 | 35 ft | 0 kts | 282° |
| 2026-05-04 04:32 | -34.60399 | 135.87544 | 33 ft | 1 kts | 299° |
| 2026-05-04 04:32 | -34.60395 | 135.87541 | 32 ft | 1 kts | 324° |
| 2026-05-04 04:33 | -34.60367 | 135.87522 | 33 ft | 9 kts | 331° |
| 2026-05-04 04:33 | -34.60327 | 135.87496 | 33 ft | 7 kts | 333° |
| 2026-05-04 04:33 | -34.60288 | 135.87471 | 33 ft | 6 kts | 331° |
| 2026-05-04 04:33 | -34.60278 | 135.87460 | 33 ft | 0 kts | 297° |
| 2026-05-04 04:34 | -34.60276 | 135.87458 | 33 ft | 1 kts | 313° |
| 2026-05-04 04:34 | -34.60271 | 135.87450 | 33 ft | 2 kts | 290° |
| 2026-05-04 04:34 | -34.60273 | 135.87456 | 33 ft | 1 kts | 291° |
| 2026-05-04 04:35 | -34.60265 | 135.87449 | 32 ft | 1 kts | 346° |
| 2026-05-04 04:35 | -34.60262 | 135.87458 | 31 ft | 1 kts | 83° |
| 2026-05-04 04:35 | -34.60287 | 135.87483 | 31 ft | 10 kts | 132° |
| 2026-05-04 04:35 | -34.60325 | 135.87604 | 32 ft | 20 kts | 108° |
| 2026-05-04 04:36 | -34.60352 | 135.87716 | 31 ft | 0 kts | 105° |
| 2026-05-04 04:37 | -34.60359 | 135.87741 | 29 ft | 0 kts | 107° |
| 2026-05-04 04:39 | -34.60375 | 135.87801 | 30 ft | 17 kts | 107° |
| 2026-05-04 04:39 | -34.60386 | 135.87844 | 30 ft | 0 kts | 107° |
| 2026-05-04 04:40 | -34.60390 | 135.87860 | 31 ft | 0 kts | 108° |
| 2026-05-04 04:42 | -34.60401 | 135.87899 | 29 ft | 9 kts | 108° |
| 2026-05-04 04:42 | -34.60359 | 135.87985 | 31 ft | 18 kts | 25° |
| 2026-05-04 04:42 | -34.60211 | 135.88043 | 31 ft | 26 kts | 16° |
| 2026-05-04 04:42 | -34.60042 | 135.88088 | 33 ft | 21 kts | 9° |
| 2026-05-04 04:43 | -34.60002 | 135.88113 | 32 ft | 4 kts | 169° |
| 2026-05-04 04:43 | -34.60021 | 135.88110 | 32 ft | 0 kts | 192° |
| 2026-05-04 04:44 | -34.60063 | 135.88098 | 31 ft | 34 kts | 194° |
| 2026-05-04 04:44 | -34.60595 | 135.87904 | 32 ft | 123 kts | 196° |
| 2026-05-04 04:45 | -34.61615 | 135.87538 | 364 ft | 171 kts | 198° |
| 2026-05-04 04:45 | -34.62830 | 135.87143 | 1349 ft | 180 kts | 198° |
| 2026-05-04 04:45 | -34.64118 | 135.86689 | 1976 ft | 206 kts | 205° |
| 2026-05-04 04:47 | -34.60275 | 135.78469 | 4991 ft | 256 kts | 318° |
| 2026-05-04 04:47 | -34.58825 | 135.77114 | 5441 ft | 269 kts | 317° |
| 2026-05-04 04:47 | -34.57334 | 135.75714 | 6215 ft | 272 kts | 317° |
| 2026-05-04 04:47 | -34.55824 | 135.74291 | 6996 ft | 276 kts | 317° |
| 2026-05-04 04:48 | -34.54303 | 135.72848 | 7755 ft | 280 kts | 317° |
| 2026-05-04 04:49 | -34.48024 | 135.66859 | 10538 ft | 304 kts | 317° |
| 2026-05-04 04:49 | -34.46299 | 135.65203 | 10703 ft | 327 kts | 317° |
| 2026-05-04 04:49 | -34.44465 | 135.63446 | 10985 ft | 344 kts | 317° |
| 2026-05-04 04:49 | -34.42563 | 135.61629 | 11508 ft | 350 kts | 317° |
| 2026-05-04 04:50 | -34.40640 | 135.59798 | 12148 ft | 354 kts | 317° |
| 2026-05-04 04:50 | -34.38694 | 135.57945 | 12819 ft | 358 kts | 318° |
| 2026-05-04 04:50 | -34.36719 | 135.56062 | 13493 ft | 364 kts | 318° |
| 2026-05-04 04:50 | -34.34725 | 135.54161 | 14226 ft | 367 kts | 317° |
| 2026-05-04 04:51 | -34.32709 | 135.52242 | 14889 ft | 372 kts | 317° |
| 2026-05-04 04:51 | -34.30664 | 135.50296 | 15528 ft | 376 kts | 317° |
| 2026-05-04 04:51 | -34.28594 | 135.48326 | 16173 ft | 380 kts | 317° |
| 2026-05-04 04:51 | -34.26500 | 135.46336 | 16811 ft | 385 kts | 317° |
| 2026-05-04 04:52 | -34.24383 | 135.44322 | 17440 ft | 390 kts | 317° |
| 2026-05-04 04:52 | -34.22242 | 135.42288 | 18053 ft | 394 kts | 317° |
| 2026-05-04 04:52 | -34.20072 | 135.40228 | 18648 ft | 398 kts | 317° |
| 2026-05-04 04:52 | -34.17886 | 135.38156 | 19197 ft | 402 kts | 317° |
| 2026-05-04 04:53 | -34.15713 | 135.36010 | 19761 ft | 402 kts | 310° |
| 2026-05-04 04:53 | -34.14090 | 135.33335 | 20275 ft | 394 kts | 290° |
| 2026-05-04 04:53 | -34.13246 | 135.30222 | 20853 ft | 387 kts | 274° |
| 2026-05-04 04:53 | -34.13018 | 135.27010 | 21441 ft | 385 kts | 269° |
| 2026-05-04 04:54 | -34.12875 | 135.23770 | 21948 ft | 389 kts | 268° |
| 2026-05-04 04:54 | -34.12743 | 135.20490 | 22455 ft | 392 kts | 268° |
| 2026-05-04 04:54 | -34.12606 | 135.17189 | 22981 ft | 395 kts | 268° |
| 2026-05-04 04:54 | -34.12460 | 135.13871 | 23512 ft | 398 kts | 268° |
| 2026-05-04 04:55 | -34.12303 | 135.10522 | 23974 ft | 401 kts | 268° |
| 2026-05-04 04:55 | -34.12139 | 135.07161 | 24417 ft | 403 kts | 269° |
| 2026-05-04 04:55 | -34.11968 | 135.03782 | 24871 ft | 404 kts | 269° |
| 2026-05-04 04:55 | -34.11793 | 135.00384 | 25299 ft | 406 kts | 269° |
| 2026-05-04 04:56 | -34.11615 | 134.96964 | 25655 ft | 410 kts | 270° |
| 2026-05-04 04:56 | -34.11434 | 134.93527 | 26041 ft | 413 kts | 270° |
| 2026-05-04 04:56 | -34.11250 | 134.90057 | 26464 ft | 414 kts | 270° |
| 2026-05-04 04:56 | -34.11065 | 134.86582 | 26882 ft | 416 kts | 270° |
| 2026-05-04 04:57 | -34.10878 | 134.83096 | 27268 ft | 418 kts | 270° |
| 2026-05-04 04:57 | -34.10690 | 134.79587 | 27643 ft | 420 kts | 270° |
| 2026-05-04 04:57 | -34.10499 | 134.76059 | 28017 ft | 422 kts | 270° |
| 2026-05-04 04:57 | -34.10307 | 134.72515 | 28384 ft | 424 kts | 271° |
| 2026-05-04 04:58 | -34.10115 | 134.69008 | 28736 ft | 426 kts | 271° |
| 2026-05-04 04:58 | -34.09917 | 134.65389 | 29103 ft | 428 kts | 271° |
| 2026-05-04 04:58 | -34.09719 | 134.61796 | 29440 ft | 430 kts | 271° |
| 2026-05-04 04:58 | -34.09521 | 134.58236 | 29737 ft | 432 kts | 271° |
| 2026-05-04 04:59 | -34.09316 | 134.54556 | 30044 ft | 435 kts | 271° |
| 2026-05-04 04:59 | -34.09115 | 134.50964 | 30336 ft | 436 kts | 271° |
| 2026-05-04 04:59 | -34.08909 | 134.47318 | 30675 ft | 436 kts | 271° |
| 2026-05-04 04:59 | -34.08702 | 134.43671 | 31097 ft | 434 kts | 271° |
| 2026-05-04 05:00 | -34.08496 | 134.40056 | 31510 ft | 431 kts | 271° |
| 2026-05-04 05:00 | -34.08287 | 134.36402 | 31838 ft | 431 kts | 272° |
| 2026-05-04 05:00 | -34.07873 | 134.29236 | 32510 ft | 430 kts | 272° |
| 2026-05-04 05:01 | -34.07664 | 134.25643 | 32899 ft | 428 kts | 272° |
| 2026-05-04 05:01 | -34.07455 | 134.22064 | 33244 ft | 427 kts | 272° |
| 2026-05-04 05:01 | -34.07245 | 134.18487 | 33485 ft | 429 kts | 272° |
| 2026-05-04 05:01 | -34.07034 | 134.14895 | 33756 ft | 429 kts | 272° |
| 2026-05-04 05:02 | -34.06821 | 134.11305 | 34131 ft | 427 kts | 272° |
| 2026-05-04 05:02 | -34.06609 | 134.07747 | 34460 ft | 425 kts | 272° |
| 2026-05-04 05:02 | -34.06396 | 134.04183 | 34702 ft | 426 kts | 272° |
| 2026-05-04 05:02 | -34.06182 | 134.00618 | 34896 ft | 427 kts | 272° |
| 2026-05-04 05:03 | -34.05966 | 133.97050 | 35123 ft | 427 kts | 272° |
| 2026-05-04 05:03 | -34.05750 | 133.93493 | 35411 ft | 425 kts | 272° |
| 2026-05-04 05:04 | -34.05094 | 133.82792 | 36111 ft | 425 kts | 272° |
| 2026-05-04 05:04 | -34.04653 | 133.75673 | 36164 ft | 432 kts | 273° |
| 2026-05-04 05:06 | -34.02846 | 133.47226 | 36165 ft | 423 kts | 273° |
| 2026-05-04 05:07 | -34.02387 | 133.40149 | 36164 ft | 424 kts | 273° |
| 2026-05-04 05:07 | -34.01922 | 133.33060 | 36170 ft | 425 kts | 273° |
| 2026-05-04 05:09 | -33.99766 | 133.00942 | 36167 ft | 430 kts | 273° |
| 2026-05-04 05:10 | -33.99272 | 132.93752 | 36173 ft | 431 kts | 273° |
| 2026-05-04 05:10 | -33.98773 | 132.86559 | 36165 ft | 431 kts | 273° |
| 2026-05-04 05:11 | -33.98270 | 132.79366 | 36178 ft | 431 kts | 273° |
| 2026-05-04 05:11 | -33.97762 | 132.72167 | 36173 ft | 431 kts | 273° |
| 2026-05-04 05:12 | -33.97251 | 132.64980 | 36176 ft | 430 kts | 274° |
| 2026-05-04 05:12 | -33.96735 | 132.57791 | 36174 ft | 430 kts | 273° |
| 2026-05-04 05:13 | -33.96218 | 132.50626 | 36181 ft | 430 kts | 273° |
| 2026-05-04 05:13 | -33.95695 | 132.43460 | 36185 ft | 429 kts | 274° |
| 2026-05-04 05:14 | -33.95255 | 132.37467 | 36176 ft | 429 kts | 273° |
| 2026-05-04 05:14 | -33.94727 | 132.30321 | 36187 ft | 429 kts | 273° |
| 2026-05-04 05:15 | -33.94193 | 132.23158 | 36185 ft | 429 kts | 273° |
| 2026-05-04 05:15 | -33.93656 | 132.16008 | 36182 ft | 429 kts | 273° |
| 2026-05-04 05:16 | -33.93114 | 132.08854 | 36178 ft | 429 kts | 273° |
| 2026-05-04 05:16 | -33.92569 | 132.01703 | 36186 ft | 429 kts | 274° |
| 2026-05-04 05:17 | -33.92017 | 131.94533 | 36184 ft | 430 kts | 273° |
| 2026-05-04 05:17 | -33.91462 | 131.87364 | 36191 ft | 430 kts | 273° |
| 2026-05-04 05:18 | -33.90901 | 131.80181 | 36191 ft | 431 kts | 273° |
| 2026-05-04 05:18 | -33.90336 | 131.72995 | 36190 ft | 432 kts | 273° |
| 2026-05-04 05:19 | -33.89766 | 131.65805 | 36189 ft | 432 kts | 273° |
| 2026-05-04 05:19 | -33.89192 | 131.58602 | 36195 ft | 432 kts | 273° |
| 2026-05-04 05:20 | -33.88616 | 131.51441 | 36195 ft | 433 kts | 273° |
| 2026-05-04 05:20 | -33.88023 | 131.44177 | 36200 ft | 433 kts | 273° |
| 2026-05-04 05:21 | -33.87429 | 131.37003 | 36199 ft | 434 kts | 273° |
| 2026-05-04 05:21 | -33.86826 | 131.29781 | 36195 ft | 434 kts | 273° |
| 2026-05-04 05:22 | -33.86216 | 131.22504 | 36207 ft | 434 kts | 273° |
| 2026-05-04 05:22 | -33.85611 | 131.15327 | 36206 ft | 435 kts | 273° |
| 2026-05-04 05:23 | -33.84996 | 131.08094 | 36203 ft | 435 kts | 273° |
| 2026-05-04 05:23 | -33.84470 | 131.01949 | 36206 ft | 435 kts | 273° |
| 2026-05-04 05:24 | -33.83846 | 130.94702 | 36209 ft | 435 kts | 273° |
| 2026-05-04 05:24 | -33.83219 | 130.87462 | 36195 ft | 435 kts | 272° |
| 2026-05-04 05:25 | -33.82586 | 130.80216 | 36209 ft | 435 kts | 272° |
| 2026-05-04 05:25 | -33.81950 | 130.72975 | 36212 ft | 435 kts | 272° |
| 2026-05-04 05:26 | -33.81314 | 130.65787 | 36213 ft | 435 kts | 272° |
| 2026-05-04 05:26 | -33.80665 | 130.58503 | 36214 ft | 435 kts | 272° |
| 2026-05-04 05:28 | -33.78051 | 130.29638 | 36217 ft | 435 kts | 272° |
| 2026-05-04 05:29 | -33.77386 | 130.22417 | 36214 ft | 434 kts | 272° |
| 2026-05-04 05:29 | -33.76718 | 130.15209 | 36220 ft | 434 kts | 272° |
| 2026-05-04 05:31 | -33.74007 | 129.86409 | 36226 ft | 433 kts | 272° |
| 2026-05-04 05:32 | -33.73319 | 129.79212 | 36218 ft | 433 kts | 272° |
| 2026-05-04 05:33 | -33.72282 | 129.68448 | 36228 ft | 433 kts | 272° |
| 2026-05-04 05:33 | -33.71584 | 129.61261 | 36221 ft | 432 kts | 272° |
| 2026-05-04 05:34 | -33.70883 | 129.54092 | 36225 ft | 432 kts | 272° |
| 2026-05-04 05:34 | -33.70180 | 129.46935 | 36230 ft | 432 kts | 272° |
| 2026-05-04 05:35 | -33.69472 | 129.39779 | 36232 ft | 431 kts | 272° |
| 2026-05-04 05:35 | -33.68761 | 129.32632 | 36232 ft | 431 kts | 273° |
| 2026-05-04 05:36 | -33.68047 | 129.25496 | 36230 ft | 430 kts | 273° |
| 2026-05-04 05:36 | -33.67329 | 129.18367 | 36239 ft | 430 kts | 273° |
| 2026-05-04 05:37 | -33.66608 | 129.11244 | 36238 ft | 430 kts | 273° |
| 2026-05-04 05:37 | -33.65883 | 129.04124 | 36234 ft | 429 kts | 273° |
| 2026-05-04 05:38 | -33.64795 | 128.93516 | 36239 ft | 428 kts | 273° |
| 2026-05-04 05:38 | -33.64058 | 128.86385 | 36246 ft | 428 kts | 274° |
| 2026-05-04 05:39 | -33.62954 | 128.75775 | 36234 ft | 427 kts | 274° |
| 2026-05-04 05:40 | -33.61848 | 128.65234 | 36238 ft | 426 kts | 274° |
| 2026-05-04 05:40 | -33.61104 | 128.58191 | 36240 ft | 425 kts | 274° |
| 2026-05-04 05:41 | -33.60356 | 128.51153 | 36241 ft | 425 kts | 274° |
| 2026-05-04 05:41 | -33.59605 | 128.44124 | 36246 ft | 425 kts | 274° |
| 2026-05-04 05:42 | -33.58850 | 128.37093 | 36249 ft | 425 kts | 274° |
| 2026-05-04 05:42 | -33.58092 | 128.30072 | 36240 ft | 424 kts | 274° |
| 2026-05-04 05:43 | -33.57331 | 128.23058 | 36249 ft | 424 kts | 274° |
| 2026-05-04 05:45 | -33.54245 | 127.94968 | 36245 ft | 425 kts | 275° |
| 2026-05-04 05:47 | -33.51128 | 127.66899 | 36255 ft | 424 kts | 275° |
| 2026-05-04 05:47 | -33.50340 | 127.59900 | 36258 ft | 424 kts | 275° |
| 2026-05-04 05:48 | -33.49548 | 127.52896 | 36262 ft | 424 kts | 275° |
| 2026-05-04 05:48 | -33.48753 | 127.45906 | 36262 ft | 423 kts | 275° |
| 2026-05-04 05:49 | -33.47955 | 127.38925 | 36261 ft | 423 kts | 275° |
| 2026-05-04 05:49 | -33.47155 | 127.31955 | 36268 ft | 422 kts | 275° |
| 2026-05-04 05:51 | -33.43918 | 127.04132 | 36264 ft | 421 kts | 275° |
| 2026-05-04 05:52 | -33.43100 | 126.97182 | 36254 ft | 421 kts | 275° |
| 2026-05-04 05:52 | -33.42279 | 126.90244 | 36265 ft | 421 kts | 275° |
| 2026-05-04 05:54 | -33.38960 | 126.62540 | 36273 ft | 420 kts | 275° |
| 2026-05-04 05:55 | -33.38121 | 126.55616 | 36279 ft | 420 kts | 275° |
| 2026-05-04 05:55 | -33.37278 | 126.48694 | 36275 ft | 420 kts | 275° |
| 2026-05-04 05:56 | -33.36432 | 126.41785 | 36276 ft | 420 kts | 275° |
| 2026-05-04 05:56 | -33.35582 | 126.34870 | 36278 ft | 420 kts | 275° |
| 2026-05-04 05:57 | -33.34728 | 126.27963 | 36276 ft | 420 kts | 275° |
| 2026-05-04 05:57 | -33.33872 | 126.21064 | 36281 ft | 419 kts | 275° |
| 2026-05-04 05:58 | -33.33014 | 126.14181 | 36278 ft | 419 kts | 275° |
| 2026-05-04 05:58 | -33.32297 | 126.08457 | 36279 ft | 418 kts | 275° |
| 2026-05-04 05:59 | -33.31433 | 126.01586 | 36276 ft | 418 kts | 275° |
| 2026-05-04 05:59 | -33.30418 | 125.93552 | 36282 ft | 417 kts | 275° |
| 2026-05-04 06:00 | -33.29694 | 125.87856 | 36283 ft | 417 kts | 275° |
| 2026-05-04 06:00 | -33.28679 | 125.79893 | 36288 ft | 417 kts | 275° |
| 2026-05-04 06:01 | -33.27944 | 125.74155 | 36284 ft | 417 kts | 275° |
| 2026-05-04 06:03 | -33.24405 | 125.46821 | 36294 ft | 415 kts | 275° |
| 2026-05-04 06:05 | -33.20363 | 125.16175 | 36287 ft | 414 kts | 275° |
| 2026-05-04 06:06 | -33.19457 | 125.09380 | 36277 ft | 414 kts | 275° |
| 2026-05-04 06:06 | -33.18550 | 125.02605 | 36302 ft | 413 kts | 275° |
| 2026-05-04 06:07 | -33.17634 | 124.95829 | 36308 ft | 413 kts | 275° |
| 2026-05-04 06:07 | -33.16708 | 124.89066 | 36299 ft | 413 kts | 275° |
| 2026-05-04 06:08 | -33.15780 | 124.82311 | 36306 ft | 412 kts | 275° |
| 2026-05-04 06:08 | -33.14852 | 124.75569 | 36308 ft | 412 kts | 275° |
| 2026-05-04 06:09 | -33.13921 | 124.68834 | 36304 ft | 411 kts | 275° |
| 2026-05-04 06:11 | -33.10171 | 124.41966 | 36311 ft | 410 kts | 275° |
| 2026-05-04 06:13 | -33.06379 | 124.15234 | 36298 ft | 409 kts | 275° |
| 2026-05-04 06:14 | -33.03015 | 123.91857 | 36311 ft | 409 kts | 276° |
| 2026-05-04 06:15 | -33.02046 | 123.85185 | 36307 ft | 409 kts | 276° |
| 2026-05-04 06:15 | -33.01074 | 123.78518 | 36306 ft | 409 kts | 276° |
| 2026-05-04 06:16 | -33.00098 | 123.71850 | 36306 ft | 408 kts | 276° |
| 2026-05-04 06:16 | -32.99119 | 123.65189 | 36296 ft | 408 kts | 276° |
| 2026-05-04 06:17 | -32.98137 | 123.58531 | 36307 ft | 408 kts | 276° |
| 2026-05-04 06:17 | -32.97153 | 123.51883 | 36308 ft | 408 kts | 276° |
| 2026-05-04 06:18 | -32.96165 | 123.45231 | 36303 ft | 408 kts | 276° |
| 2026-05-04 06:20 | -32.92176 | 123.18644 | 36309 ft | 408 kts | 276° |
| 2026-05-04 06:21 | -32.89654 | 123.02032 | 36310 ft | 408 kts | 276° |
| 2026-05-04 06:22 | -32.88639 | 122.95391 | 36312 ft | 408 kts | 276° |
| 2026-05-04 06:25 | -32.81426 | 122.48878 | 36321 ft | 409 kts | 277° |
| 2026-05-04 06:26 | -32.80381 | 122.42236 | 36322 ft | 409 kts | 277° |
| 2026-05-04 06:26 | -32.79332 | 122.35593 | 36321 ft | 409 kts | 277° |
| 2026-05-04 06:27 | -32.76695 | 122.18998 | 36323 ft | 409 kts | 277° |
| 2026-05-04 06:28 | -32.75636 | 122.12370 | 36314 ft | 409 kts | 277° |
| 2026-05-04 06:28 | -32.74580 | 122.05792 | 36318 ft | 401 kts | 277° |
| 2026-05-04 06:29 | -32.73538 | 121.99322 | 36323 ft | 398 kts | 277° |
| 2026-05-04 06:29 | -32.72501 | 121.92886 | 36329 ft | 397 kts | 277° |
| 2026-05-04 06:30 | -32.71469 | 121.86459 | 36331 ft | 395 kts | 276° |
| 2026-05-04 06:30 | -32.70746 | 121.79998 | 36330 ft | 394 kts | 274° |
| 2026-05-04 06:31 | -32.70109 | 121.73531 | 36332 ft | 395 kts | 274° |
| 2026-05-04 06:31 | -32.69465 | 121.67101 | 36334 ft | 395 kts | 274° |
| 2026-05-04 06:33 | -32.66744 | 121.41092 | 36328 ft | 399 kts | 274° |
| 2026-05-04 06:34 | -32.66050 | 121.34561 | 36330 ft | 400 kts | 274° |
| 2026-05-04 06:34 | -32.65350 | 121.28012 | 36330 ft | 400 kts | 274° |
| 2026-05-04 06:36 | -32.62516 | 121.01823 | 36338 ft | 399 kts | 274° |
| 2026-05-04 06:37 | -32.61801 | 120.95300 | 36317 ft | 398 kts | 275° |
| 2026-05-04 06:37 | -32.61085 | 120.88788 | 36328 ft | 398 kts | 275° |
| 2026-05-04 06:38 | -32.60366 | 120.82293 | 36332 ft | 397 kts | 275° |
| 2026-05-04 06:40 | -32.57454 | 120.56266 | 36334 ft | 400 kts | 275° |
| 2026-05-04 06:40 | -32.56712 | 120.49715 | 36330 ft | 401 kts | 275° |
| 2026-05-04 06:41 | -32.55966 | 120.43161 | 36331 ft | 401 kts | 275° |
| 2026-05-04 06:41 | -32.55217 | 120.36614 | 36320 ft | 401 kts | 275° |
| 2026-05-04 06:42 | -32.54587 | 120.31124 | 36332 ft | 400 kts | 275° |
| 2026-05-04 06:44 | -32.51916 | 120.08091 | 36332 ft | 398 kts | 275° |
| 2026-05-04 06:44 | -32.51155 | 120.01596 | 36334 ft | 397 kts | 276° |
| 2026-05-04 06:45 | -32.50393 | 119.95124 | 36330 ft | 397 kts | 276° |
| 2026-05-04 06:45 | -32.49629 | 119.88653 | 36332 ft | 396 kts | 276° |
| 2026-05-04 06:46 | -32.48861 | 119.82185 | 36326 ft | 396 kts | 276° |
| 2026-05-04 06:46 | -32.48086 | 119.75731 | 36338 ft | 396 kts | 276° |
| 2026-05-04 06:48 | -32.44947 | 119.49876 | 36334 ft | 397 kts | 276° |
| 2026-05-04 06:50 | -32.41747 | 119.23951 | 36341 ft | 398 kts | 277° |
| 2026-05-04 06:51 | -32.40938 | 119.17468 | 36340 ft | 398 kts | 277° |
| 2026-05-04 06:51 | -32.40124 | 119.10973 | 36340 ft | 398 kts | 277° |
| 2026-05-04 06:52 | -32.39310 | 119.04501 | 36336 ft | 398 kts | 277° |
| 2026-05-04 06:52 | -32.38492 | 118.98029 | 36337 ft | 397 kts | 277° |
| 2026-05-04 06:53 | -32.37673 | 118.91572 | 36342 ft | 397 kts | 277° |
| 2026-05-04 06:53 | -32.36852 | 118.85121 | 36337 ft | 396 kts | 277° |
| 2026-05-04 06:54 | -32.36028 | 118.78682 | 36334 ft | 396 kts | 277° |
| 2026-05-04 06:54 | -32.35203 | 118.72255 | 36334 ft | 395 kts | 277° |
| 2026-05-04 06:55 | -32.34381 | 118.65873 | 36337 ft | 395 kts | 278° |
| 2026-05-04 06:55 | -32.33695 | 118.59402 | 36327 ft | 394 kts | 270° |
| 2026-05-04 06:57 | -32.34537 | 118.33576 | 36339 ft | 394 kts | 268° |
| 2026-05-04 06:58 | -32.34730 | 118.27088 | 36335 ft | 395 kts | 268° |
| 2026-05-04 06:58 | -32.34825 | 118.23852 | 36157 ft | 394 kts | 268° |
| 2026-05-04 06:58 | -32.34918 | 118.20638 | 35894 ft | 387 kts | 268° |
| 2026-05-04 06:59 | -32.35009 | 118.17473 | 35475 ft | 384 kts | 268° |
| 2026-05-04 06:59 | -32.35099 | 118.14337 | 35119 ft | 380 kts | 268° |
| 2026-05-04 06:59 | -32.35187 | 118.11229 | 34743 ft | 377 kts | 268° |
| 2026-05-04 06:59 | -32.35274 | 118.08149 | 34372 ft | 374 kts | 268° |
| 2026-05-04 07:01 | -32.35844 | 117.87224 | 31716 ft | 354 kts | 268° |
| 2026-05-04 07:01 | -32.35920 | 117.84317 | 31363 ft | 352 kts | 268° |
| 2026-05-04 07:02 | -32.35995 | 117.81432 | 31012 ft | 350 kts | 267° |
| 2026-05-04 07:02 | -32.36070 | 117.78562 | 30670 ft | 349 kts | 267° |
| 2026-05-04 07:02 | -32.36144 | 117.75701 | 30307 ft | 347 kts | 267° |
| 2026-05-04 07:02 | -32.36217 | 117.72845 | 29917 ft | 351 kts | 267° |
| 2026-05-04 07:03 | -32.36291 | 117.69935 | 29522 ft | 357 kts | 267° |
| 2026-05-04 07:03 | -32.36364 | 117.66988 | 29117 ft | 357 kts | 267° |
| 2026-05-04 07:03 | -32.36375 | 117.64064 | 28711 ft | 355 kts | 271° |
| 2026-05-04 07:03 | -32.36187 | 117.61155 | 28270 ft | 354 kts | 274° |
| 2026-05-04 07:04 | -32.35922 | 117.58260 | 27823 ft | 354 kts | 274° |
| 2026-05-04 07:04 | -32.35641 | 117.55379 | 27413 ft | 352 kts | 274° |
| 2026-05-04 07:04 | -32.35367 | 117.52508 | 27023 ft | 350 kts | 274° |
| 2026-05-04 07:04 | -32.35103 | 117.49650 | 26631 ft | 349 kts | 274° |
| 2026-05-04 07:05 | -32.34848 | 117.46802 | 26238 ft | 347 kts | 274° |
| 2026-05-04 07:05 | -32.34601 | 117.43973 | 25884 ft | 345 kts | 273° |
| 2026-05-04 07:05 | -32.34358 | 117.41151 | 25512 ft | 344 kts | 273° |
| 2026-05-04 07:05 | -32.34118 | 117.38340 | 25077 ft | 345 kts | 273° |
| 2026-05-04 07:06 | -32.33639 | 117.32716 | 24360 ft | 342 kts | 273° |
| 2026-05-04 07:06 | -32.33401 | 117.29926 | 24024 ft | 340 kts | 273° |
| 2026-05-04 07:06 | -32.33163 | 117.27144 | 23633 ft | 339 kts | 273° |
| 2026-05-04 07:07 | -32.32926 | 117.24373 | 23218 ft | 338 kts | 273° |
| 2026-05-04 07:08 | -32.31274 | 117.05258 | 20560 ft | 330 kts | 273° |
| 2026-05-04 07:09 | -32.31041 | 117.02596 | 20212 ft | 329 kts | 273° |
| 2026-05-04 07:09 | -32.30804 | 116.99878 | 19860 ft | 328 kts | 273° |
| 2026-05-04 07:09 | -32.30568 | 116.97192 | 19510 ft | 327 kts | 273° |
| 2026-05-04 07:09 | -32.30333 | 116.94524 | 19172 ft | 327 kts | 273° |
| 2026-05-04 07:10 | -32.30098 | 116.91855 | 18842 ft | 326 kts | 273° |
| 2026-05-04 07:10 | -32.29863 | 116.89198 | 18496 ft | 325 kts | 273° |
| 2026-05-04 07:12 | -32.28228 | 116.70867 | 16035 ft | 317 kts | 274° |
| 2026-05-04 07:12 | -32.27996 | 116.68288 | 15718 ft | 316 kts | 274° |
| 2026-05-04 07:12 | -32.27764 | 116.65712 | 15395 ft | 315 kts | 274° |
| 2026-05-04 07:12 | -32.27533 | 116.63140 | 15049 ft | 315 kts | 274° |
| 2026-05-04 07:13 | -32.27303 | 116.60602 | 14707 ft | 314 kts | 274° |
| 2026-05-04 07:13 | -32.27071 | 116.58058 | 14260 ft | 310 kts | 274° |
| 2026-05-04 07:13 | -32.26836 | 116.55516 | 13689 ft | 314 kts | 275° |
| 2026-05-04 07:14 | -32.25147 | 116.45574 | 12413 ft | 302 kts | 281° |
| 2026-05-04 07:14 | -32.24711 | 116.43153 | 11879 ft | 301 kts | 281° |
| 2026-05-04 07:15 | -32.24281 | 116.40735 | 11395 ft | 299 kts | 281° |
| 2026-05-04 07:15 | -32.23860 | 116.38353 | 11024 ft | 294 kts | 280° |
| 2026-05-04 07:15 | -32.23447 | 116.36005 | 10675 ft | 288 kts | 280° |
| 2026-05-04 07:15 | -32.23047 | 116.33723 | 10382 ft | 281 kts | 281° |
| 2026-05-04 07:16 | -32.22653 | 116.31471 | 10145 ft | 278 kts | 280° |
| 2026-05-04 07:16 | -32.22267 | 116.29268 | 9961 ft | 275 kts | 280° |
| 2026-05-04 07:16 | -32.21871 | 116.26999 | 9682 ft | 287 kts | 280° |
| 2026-05-04 07:16 | -32.21464 | 116.24679 | 9381 ft | 289 kts | 281° |
| 2026-05-04 07:17 | -32.21058 | 116.22363 | 9066 ft | 288 kts | 281° |
| 2026-05-04 07:17 | -32.20651 | 116.20053 | 8769 ft | 286 kts | 281° |
| 2026-05-04 07:17 | -32.20247 | 116.17759 | 8479 ft | 285 kts | 281° |
| 2026-05-04 07:17 | -32.19843 | 116.15473 | 8195 ft | 284 kts | 281° |
| 2026-05-04 07:18 | -32.19575 | 116.13173 | 7892 ft | 283 kts | 270° |
| 2026-05-04 07:18 | -32.19647 | 116.10863 | 7629 ft | 281 kts | 267° |
| 2026-05-04 07:18 | -32.19720 | 116.08571 | 7339 ft | 279 kts | 268° |
| 2026-05-04 07:18 | -32.19771 | 116.06282 | 7055 ft | 279 kts | 268° |
| 2026-05-04 07:19 | -32.19810 | 116.03996 | 6781 ft | 278 kts | 269° |
| 2026-05-04 07:19 | -32.19692 | 116.01722 | 6465 ft | 278 kts | 281° |
| 2026-05-04 07:19 | -32.19212 | 115.99523 | 6193 ft | 277 kts | 286° |
| 2026-05-04 07:19 | -32.18686 | 115.97339 | 5895 ft | 275 kts | 285° |
| 2026-05-04 07:20 | -32.18186 | 115.95188 | 5611 ft | 274 kts | 284° |
| 2026-05-04 07:20 | -32.17700 | 115.93012 | 5381 ft | 272 kts | 284° |
| 2026-05-04 07:20 | -32.17228 | 115.90882 | 5253 ft | 265 kts | 285° |
| 2026-05-04 07:20 | -32.16478 | 115.88943 | 4991 ft | 259 kts | 309° |
| 2026-05-04 07:22 | -32.08706 | 115.80672 | 3807 ft | 181 kts | 356° |
| 2026-05-04 07:22 | -32.07458 | 115.80512 | 3683 ft | 180 kts | 356° |
| 2026-05-04 07:23 | -32.06211 | 115.80355 | 3531 ft | 180 kts | 356° |
| 2026-05-04 07:23 | -32.04969 | 115.80198 | 3384 ft | 179 kts | 356° |
| 2026-05-04 07:23 | -32.03732 | 115.80042 | 3262 ft | 178 kts | 356° |
| 2026-05-04 07:23 | -32.02527 | 115.80168 | 3118 ft | 174 kts | 31° |
| 2026-05-04 07:24 | -32.01749 | 115.81187 | 2972 ft | 171 kts | 60° |
| 2026-05-04 07:24 | -32.01119 | 115.82367 | 2742 ft | 168 kts | 59° |
| 2026-05-04 07:24 | -32.00501 | 115.83523 | 2519 ft | 169 kts | 60° |
| 2026-05-04 07:24 | -31.99889 | 115.84691 | 2283 ft | 161 kts | 60° |
| 2026-05-04 07:25 | -31.99337 | 115.85754 | 2125 ft | 142 kts | 61° |
| 2026-05-04 07:26 | -31.95858 | 115.92489 | 780 ft | 137 kts | 63° |
| 2026-05-04 07:27 | -31.95368 | 115.93447 | 636 ft | 137 kts | 60° |
| 2026-05-04 07:27 | -31.94878 | 115.94410 | 405 ft | 136 kts | 60° |
| 2026-05-04 07:27 | -31.94400 | 115.95346 | 211 ft | 128 kts | 60° |
| 2026-05-04 07:27 | -31.94097 | 115.95923 | 100 ft | 124 kts | 59° |
| 2026-05-04 07:28 | -31.93650 | 115.96787 | 64 ft | 12 kts | 62° |
| 2026-05-04 07:28 | -31.93648 | 115.96790 | 65 ft | 0 kts | 62° |
| 2026-05-04 07:28 | -31.93646 | 115.96796 | 66 ft | 5 kts | 61° |
| 2026-05-04 07:28 | -31.93565 | 115.96957 | 60 ft | 29 kts | 53° |
| 2026-05-04 07:29 | -31.93442 | 115.97030 | 67 ft | 23 kts | 14° |